createdAt,value
2022-09-18T00:04:15.233Z,72.74
2022-09-18T00:18:10.818Z,73.43
2022-09-18T00:54:39.846Z,73.84
2022-09-18T01:01:58.568Z,74.51
2022-09-18T01:05:41.445Z,75.06
2022-09-18T01:23:00.195Z,75.89
2022-09-18T01:35:09.820Z,76.41
2022-09-18T02:05:43.297Z,77.81
2022-09-18T02:18:59.153Z,78.28
2022-09-18T02:40:24.509Z,79.00
2022-09-18T02:43:00.840Z,79.28
2022-09-18T02:43:21.215Z,79.87
2022-09-18T02:46:50.696Z,79.98
2022-09-18T02:50:09.470Z,80.13
2022-09-18T03:37:14.387Z,80.64
2022-09-18T03:45:49.468Z,80.37
2022-09-18T03:58:14.322Z,80.15
2022-09-18T04:15:39.163Z,78.64
2022-09-18T04:19:17.052Z,79.19
2022-09-18T04:30:55.272Z,77.12
2022-09-18T04:42:47.900Z,74.27
2022-09-18T04:56:06.649Z,70.88
2022-09-18T05:03:09.875Z,69.70
2022-09-18T05:07:16.146Z,69.30
2022-09-18T05:10:12.277Z,68.34
2022-09-18T05:12:59.492Z,68.22
2022-09-18T05:15:33.198Z,67.92
2022-09-18T05:18:27.072Z,67.51
2022-09-18T05:25:45.355Z,65.96
2022-09-18T05:29:29.911Z,64.61
2022-09-18T05:35:37.733Z,63.17
2022-09-18T05:38:30.893Z,62.56
2022-09-18T05:42:13.720Z,62.30
2022-09-18T06:08:32.739Z,57.22
2022-09-18T06:11:49.558Z,58.52
2022-09-18T06:15:16.602Z,59.01
2022-09-18T06:18:24.302Z,58.04
2022-09-18T06:20:58.520Z,55.37
2022-09-18T06:24:46.973Z,54.57
2022-09-18T06:31:00.806Z,55.90
2022-09-18T06:34:55.850Z,57.07
2022-09-18T06:38:17.754Z,58.31
2022-09-18T06:41:13.672Z,58.51
2022-09-18T06:44:31.028Z,57.25
2022-09-18T06:51:34.462Z,56.00
2022-09-18T07:12:12.460Z,47.01
2022-09-18T07:23:08.564Z,42.01
2022-09-18T07:27:10.740Z,39.84
2022-09-18T07:30:15.369Z,39.13
2022-09-18T07:33:10.268Z,39.21
2022-09-18T07:39:47.534Z,40.66
2022-09-18T07:42:42.072Z,42.61
2022-09-18T07:45:41.170Z,43.47
2022-09-18T07:48:47.847Z,43.64
2022-09-18T07:51:31.176Z,43.23
2022-09-18T07:54:00.841Z,42.26
2022-09-18T07:57:54.257Z,40.93
2022-09-18T08:00:35.233Z,39.69
2022-09-18T08:03:31.149Z,39.69
2022-09-18T08:06:09.981Z,39.98
2022-09-18T08:08:46.795Z,40.92
2022-09-18T08:12:05.930Z,41.23
2022-09-18T08:14:52.923Z,41.06
2022-09-18T08:18:54.606Z,40.91
2022-09-18T08:21:58.618Z,40.53
2022-09-18T08:24:34.883Z,40.41
2022-09-18T08:29:56.112Z,40.44
2022-09-18T08:32:26.332Z,40.17
2022-09-18T08:35:05.780Z,40.35
2022-09-18T08:37:34.559Z,40.94
2022-09-18T08:41:15.333Z,41.81
2022-09-18T08:44:02.759Z,43.90
2022-09-18T08:46:50.867Z,45.19
2022-09-18T08:53:34.874Z,47.72
2022-09-18T08:56:25.966Z,48.01
2022-09-18T08:59:27.645Z,49.13
2022-09-18T09:02:25.026Z,49.41
2022-09-18T09:04:59.537Z,49.03
2022-09-18T09:08:09.474Z,49.10
2022-09-18T09:15:21.724Z,48.92
2022-09-18T09:18:13.842Z,49.52
2022-09-18T09:21:26.560Z,50.20
2022-09-18T09:24:21.438Z,50.36
2022-09-18T09:27:39.516Z,50.43
2022-09-18T09:30:19.452Z,51.09
2022-09-18T09:33:12.204Z,52.55
2022-09-18T09:36:13.247Z,53.23
2022-09-18T09:39:09.478Z,54.21
2022-09-18T09:41:50.350Z,54.67
2022-09-18T09:44:33.781Z,54.82
2022-09-18T09:47:43.221Z,55.66
2022-09-18T09:50:34.233Z,55.08
2022-09-18T09:53:32.107Z,55.75
2022-09-18T09:56:29.155Z,56.30
2022-09-18T09:59:23.569Z,56.80
2022-09-18T10:02:42.094Z,57.38
2022-09-18T10:05:29.723Z,57.95
2022-09-18T10:08:20.530Z,57.76
2022-09-18T10:10:58.737Z,58.29
2022-09-18T10:13:56.890Z,58.73
2022-09-18T10:16:40.899Z,58.46
2022-09-18T10:19:25.020Z,57.76
2022-09-18T10:21:56.156Z,57.74
2022-09-18T10:24:34.690Z,58.45
2022-09-18T10:27:31.580Z,58.50
2022-09-18T10:30:15.659Z,57.85
2022-09-18T10:34:05.855Z,58.82
2022-09-18T10:36:43.675Z,58.30
2022-09-18T10:39:49.194Z,58.27
2022-09-18T10:45:54.984Z,58.84
2022-09-18T10:48:51.235Z,59.31
2022-09-18T10:51:33.537Z,59.45
2022-09-18T10:54:19.721Z,59.77
2022-09-18T10:58:00.912Z,60.38
2022-09-18T11:01:33.811Z,60.73
2022-09-18T11:09:07.660Z,60.86
2022-09-18T11:11:52.297Z,60.63
2022-09-18T11:14:50.877Z,61.17
2022-09-18T11:17:59.803Z,61.63
2022-09-18T11:20:45.938Z,61.66
2022-09-18T11:23:38.174Z,61.39
2022-09-18T11:26:27.301Z,62.73
2022-09-18T11:29:19.130Z,63.43
2022-09-18T11:32:21.572Z,64.26
2022-09-18T11:35:17.658Z,64.75
2022-09-18T11:38:08.331Z,65.86
2022-09-18T11:40:51.709Z,66.27
2022-09-18T11:43:33.323Z,65.15
2022-09-18T11:51:02.205Z,67.44
2022-09-18T11:54:01.855Z,67.82
2022-09-18T11:57:17.789Z,68.62
2022-09-18T12:00:07.762Z,68.70
2022-09-18T12:03:18.581Z,68.91
2022-09-18T12:06:10.480Z,68.94
2022-09-18T12:09:20.802Z,69.31
2022-09-18T12:12:32.394Z,69.11
2022-09-18T12:15:45.359Z,69.90
2022-09-18T12:18:33.353Z,69.14
2022-09-18T12:21:17.350Z,69.76
2022-09-18T12:23:48.742Z,68.78
2022-09-18T12:26:35.039Z,70.22
2022-09-18T12:30:26.565Z,70.56
2022-09-18T12:34:08.566Z,70.87
2022-09-18T12:38:14.860Z,70.92
2022-09-18T12:41:49.462Z,71.65
2022-09-18T12:49:47.523Z,72.67
2022-09-18T12:53:10.324Z,73.32
2022-09-18T12:56:15.620Z,73.96
2022-09-18T12:59:48.510Z,74.00
2022-09-18T13:03:17.929Z,74.24
2022-09-18T13:06:00.825Z,74.56
2022-09-18T13:09:09.118Z,74.98
2022-09-18T13:11:42.125Z,74.62
2022-09-18T13:14:29.657Z,75.77
2022-09-18T13:17:07.664Z,75.21
2022-09-18T13:19:54.881Z,75.46
2022-09-18T13:22:41.691Z,75.73
2022-09-18T13:25:43.866Z,77.09
2022-09-18T13:28:18.584Z,76.25
2022-09-18T13:30:49.851Z,75.71
2022-09-18T13:33:26.412Z,76.97
2022-09-18T13:35:59.175Z,76.85
2022-09-18T13:38:30.215Z,76.20
2022-09-18T13:41:00.958Z,76.18
2022-09-18T13:43:29.221Z,76.24
2022-09-18T13:46:03.484Z,76.71
2022-09-18T13:48:35.710Z,76.43
2022-09-18T13:51:29.541Z,77.98
2022-09-18T13:54:24.794Z,78.08
2022-09-18T13:57:10.778Z,77.90
2022-09-18T14:00:10.187Z,78.10
2022-09-18T14:02:44.607Z,77.42
2022-09-18T14:05:34.483Z,78.14
2022-09-18T14:08:19.558Z,77.54
2022-09-18T14:11:05.001Z,77.04
2022-09-18T14:13:58.709Z,78.38
2022-09-18T14:16:46.433Z,78.46
2022-09-18T14:19:43.490Z,78.68
2022-09-18T14:22:43.296Z,78.63
2022-09-18T14:25:13.312Z,77.78
2022-09-18T14:27:57.265Z,78.70
2022-09-18T14:30:30.550Z,79.26
2022-09-18T14:33:07.126Z,79.48
2022-09-18T14:35:53.420Z,79.73
2022-09-18T14:38:35.322Z,79.21
2022-09-18T14:41:23.560Z,79.02
2022-09-18T14:44:04.502Z,78.84
2022-09-18T14:46:33.530Z,79.06
2022-09-18T14:49:31.503Z,79.82
2022-09-18T14:52:04.249Z,79.23
2022-09-18T14:54:40.862Z,79.79
2022-09-18T14:57:14.325Z,79.94
2022-09-18T14:59:43.141Z,79.44
2022-09-18T15:02:23.705Z,80.75
2022-09-18T15:04:58.844Z,80.28
2022-09-18T15:07:30.398Z,79.74
2022-09-18T15:10:16.803Z,79.68
2022-09-18T15:13:09.343Z,80.00
2022-09-18T15:15:40.282Z,79.92
2022-09-18T15:18:27.812Z,80.88
2022-09-18T15:21:01.962Z,80.23
2022-09-18T15:23:40.140Z,80.37
2022-09-18T15:26:13.845Z,80.36
2022-09-18T15:28:47.551Z,80.07
2022-09-18T15:31:20.475Z,80.49
2022-09-18T15:33:51.075Z,80.33
2022-09-18T15:36:42.598Z,81.26
2022-09-18T15:39:38.218Z,81.49
2022-09-18T15:42:41.830Z,81.16
2022-09-18T15:45:38.019Z,81.09
2022-09-18T15:48:40.332Z,81.20
2022-09-18T15:51:27.033Z,80.56
2022-09-18T15:54:13.755Z,81.34
2022-09-18T15:57:01.377Z,81.27
2022-09-18T15:59:37.197Z,80.65
2022-09-18T16:02:32.856Z,81.42
2022-09-18T16:05:20.989Z,81.40
2022-09-18T16:08:19.369Z,81.60
2022-09-18T16:10:51.356Z,80.81
2022-09-18T16:13:22.068Z,80.76
2022-09-18T16:16:14.956Z,81.90
2022-09-18T16:19:20.159Z,81.99
2022-09-18T16:21:48.742Z,80.73
2022-09-18T16:24:30.842Z,81.79
2022-09-18T16:27:07.617Z,81.86
2022-09-18T16:29:40.091Z,80.87
2022-09-18T16:32:14.515Z,81.50
2022-09-18T16:34:47.190Z,81.48
2022-09-18T16:37:17.831Z,81.29
2022-09-18T16:39:52.800Z,82.18
2022-09-18T16:42:24.828Z,81.90
2022-09-18T16:44:57.294Z,82.03
2022-09-18T16:47:27.003Z,81.73
2022-09-18T16:49:55.791Z,81.63
2022-09-18T16:52:23.965Z,81.51
2022-09-18T16:54:52.752Z,81.40
2022-09-18T16:57:27.889Z,81.57
2022-09-18T17:00:04.768Z,81.70
2022-09-18T17:02:34.210Z,81.44
2022-09-18T17:05:02.651Z,81.89
2022-09-18T17:07:32.156Z,81.65
2022-09-18T17:10:37.398Z,81.64
2022-09-18T17:13:08.786Z,81.50
2022-09-18T17:15:37.227Z,81.75
2022-09-18T17:18:05.398Z,81.89
2022-09-18T17:20:34.596Z,81.94
2022-09-18T17:23:05.125Z,82.01
2022-09-18T17:25:33.506Z,82.03
2022-09-18T17:28:02.087Z,82.11
2022-09-18T17:30:33.948Z,81.96
2022-09-18T17:33:03.145Z,82.16
2022-09-18T17:35:38.794Z,82.37
2022-09-18T17:38:11.170Z,82.21
2022-09-18T17:40:43.281Z,82.20
2022-09-18T17:43:25.137Z,82.33
2022-09-18T17:46:06.411Z,82.88
2022-09-18T17:48:37.464Z,82.25
2022-09-18T17:51:12.082Z,82.31
2022-09-18T17:53:42.500Z,82.30
2022-09-18T17:56:13.029Z,82.23
2022-09-18T17:58:43.606Z,81.94
2022-09-18T18:01:20.305Z,81.96
2022-09-18T18:05:27.019Z,82.27
2022-09-18T18:08:33.386Z,82.96
2022-09-18T18:11:17.638Z,82.58
2022-09-18T18:13:56.581Z,82.25
2022-09-18T18:16:35.525Z,82.41
2022-09-18T18:19:12.270Z,82.81
2022-09-18T18:24:42.198Z,82.85
2022-09-18T18:27:42.118Z,84.12
2022-09-18T18:30:10.804Z,83.08
2022-09-18T18:32:43.276Z,83.32
2022-09-18T18:35:11.553Z,83.23
2022-09-18T18:37:47.336Z,83.67
2022-09-18T18:40:15.935Z,83.45
2022-09-18T18:42:44.618Z,83.63
2022-09-18T18:45:13.768Z,82.95
2022-09-18T18:47:48.906Z,83.10
2022-09-18T18:50:33.054Z,83.24
2022-09-18T18:53:01.331Z,83.26
2022-09-18T18:55:30.326Z,83.27
2022-09-18T18:57:58.497Z,83.48
2022-09-18T19:00:27.696Z,83.87
2022-09-18T19:02:56.373Z,83.88
2022-09-18T19:05:30.597Z,83.83
2022-09-18T19:08:11.775Z,83.88
2022-09-18T19:11:25.211Z,84.41
2022-09-18T19:14:04.544Z,83.24
2022-09-18T19:16:33.256Z,83.37
2022-09-18T19:19:06.626Z,83.51
2022-09-18T19:21:41.254Z,84.26
2022-09-18T19:24:11.267Z,83.61
2022-09-18T19:26:41.387Z,84.07
2022-09-18T19:29:31.986Z,84.68
2022-09-18T19:32:00.366Z,84.52
2022-09-18T19:34:28.641Z,84.86
2022-09-18T19:36:58.249Z,84.53
2022-09-18T19:39:27.241Z,84.62
2022-09-18T19:41:57.564Z,84.69
2022-09-18T19:44:42.224Z,84.85
2022-09-18T19:47:24.120Z,85.24
2022-09-18T19:49:55.572Z,84.83
2022-09-18T19:52:26.100Z,84.88
2022-09-18T19:54:56.220Z,85.02
2022-09-18T19:57:32.901Z,85.04
2022-09-18T20:00:01.596Z,84.71
2022-09-18T20:02:41.844Z,84.55
2022-09-18T20:05:16.357Z,84.85
2022-09-18T20:07:44.736Z,84.99
2022-09-18T20:10:24.978Z,85.49
2022-09-18T20:12:54.329Z,85.11
2022-09-18T20:15:48.817Z,85.60
2022-09-18T20:18:16.917Z,84.96
2022-09-18T20:20:52.506Z,85.58
2022-09-18T20:23:24.264Z,85.67
2022-09-18T20:26:10.256Z,85.51
2022-09-18T20:29:15.728Z,86.51
2022-09-18T20:31:46.171Z,85.88
2022-09-18T20:35:11.238Z,86.22
2022-09-18T20:37:52.518Z,86.29
2022-09-18T20:40:25.169Z,85.77
2022-09-18T20:42:55.829Z,85.87
2022-09-18T20:46:07.534Z,86.67
2022-09-18T20:48:57.611Z,85.74
2022-09-18T20:51:51.282Z,87.00
2022-09-18T20:54:23.142Z,85.95
2022-09-18T20:57:05.867Z,86.08
2022-09-18T20:59:34.237Z,85.91
2022-09-18T21:02:08.998Z,85.93
2022-09-18T21:04:46.567Z,86.09
2022-09-18T21:07:31.628Z,86.91
2022-09-18T21:10:03.519Z,86.39
2022-09-18T21:12:45.998Z,86.65
2022-09-18T21:15:18.883Z,86.31
2022-09-18T21:18:03.133Z,86.37
2022-09-18T21:20:53.510Z,86.50
2022-09-18T21:26:48.960Z,86.06
2022-09-18T21:33:58.539Z,85.86
2022-09-18T21:36:45.651Z,86.55
2022-09-18T21:39:22.425Z,86.32
2022-09-18T21:41:55.678Z,86.46
2022-09-18T21:45:23.563Z,87.31
2022-09-18T21:47:44.290Z,86.32
2022-09-18T21:56:44.463Z,86.42
2022-09-18T21:59:31.990Z,86.78
2022-09-18T22:03:04.970Z,87.25
2022-09-18T22:05:59.262Z,87.20
2022-09-18T22:12:39.553Z,86.48
2022-09-18T22:39:15.974Z,87.13
2022-09-18T22:42:18.347Z,86.64
2022-09-18T22:56:15.268Z,87.44
2022-09-18T22:58:53.196Z,87.41
2022-09-18T23:02:23.238Z,87.87
2022-09-18T23:05:22.599Z,87.48
2022-09-18T23:09:08.292Z,87.60
2022-09-18T23:12:53.681Z,87.38
2022-09-18T23:15:25.636Z,86.41
2022-09-18T23:17:54.832Z,86.36
2022-09-18T23:20:25.464Z,86.42
2022-09-18T23:23:04.176Z,86.88
2022-09-18T23:26:20.794Z,86.95
2022-09-18T23:32:23.293Z,87.28
2022-09-18T23:35:12.152Z,87.06
2022-09-18T23:37:43.897Z,87.20
2022-09-18T23:40:51.302Z,87.36
2022-09-18T23:43:30.227Z,87.22
2022-09-18T23:46:20.678Z,87.52
2022-09-18T23:52:23.837Z,87.15
2022-09-18T23:55:19.863Z,87.53
2022-09-18T23:58:08.626Z,86.99
